Time;durP1;ratioP1;P1;durP2;ratioP2;P2;SDS_P1;SDS_P2;PMS_P1;PMS_P2;Temp;Humidity;BMP_temperature;BMP_pressure;BME280_temperature;BME280_humidity;BME280_pressure;Samples;Min_cycle;Max_cycle;Signal;HPM_P1;HPM_P2
2023/02/23 00:02:19;;;;;;;5.30;4.80;;;10.60;99.90;;;;;;5047878;28;20482;-74
2023/02/23 00:04:48;;;;;;;4.47;4.07;;;10.60;99.90;;;;;;5032783;28;20528;-74
2023/02/23 00:07:18;;;;;;;4.13;3.80;;;10.60;99.90;;;;;;5041656;28;20501;-75
2023/02/23 00:09:47;;;;;;;7.67;6.87;;;10.60;99.90;;;;;;5030973;28;21035;-74
2023/02/23 00:12:16;;;;;;;7.13;6.43;;;10.60;99.90;;;;;;5036476;28;20488;-74
2023/02/23 00:14:45;;;;;;;4.47;4.07;;;10.60;99.90;;;;;;5034933;28;20450;-74
2023/02/23 00:17:16;;;;;;;6.57;5.97;;;10.60;99.90;;;;;;5062845;28;20488;-74
2023/02/23 00:19:48;;;;;;;9.17;7.67;;;10.60;99.90;;;;;;5039960;28;20840;-75
2023/02/23 00:22:16;;;;;;;9.90;8.87;;;10.60;99.90;;;;;;5042372;28;20511;-73
2023/02/23 00:24:46;;;;;;;7.90;7.10;;;10.60;99.90;;;;;;5042838;28;20436;-74
2023/02/23 00:27:18;;;;;;;4.37;4.00;;;10.60;99.90;;;;;;5064089;28;20467;-74
2023/02/23 00:29:48;;;;;;;9.00;8.10;;;10.60;99.90;;;;;;5039063;28;20463;-75
2023/02/23 00:32:18;;;;;;;6.40;5.63;;;10.60;99.90;;;;;;5065031;28;20556;-74
2023/02/23 00:34:48;;;;;;;4.00;3.70;;;10.60;99.90;;;;;;5042728;28;20432;-73
2023/02/23 00:37:17;;;;;;;8.40;7.50;;;10.60;99.90;;;;;;5061669;28;20476;-74
2023/02/23 00:39:48;;;;;;;7.90;7.00;;;10.60;99.90;;;;;;5048858;28;21172;-74
2023/02/23 00:42:18;;;;;;;5.80;4.60;;;10.60;99.90;;;;;;5058306;28;20488;-73
2023/02/23 00:44:48;;;;;;;5.93;5.43;;;10.60;99.90;;;;;;5056233;28;20444;-76
2023/02/23 00:47:16;;;;;;;6.33;5.73;;;10.60;99.90;;;;;;5063199;28;20479;-74
2023/02/23 00:49:44;;;;;;;9.10;8.20;;;10.60;99.90;;;;;;5044701;28;20426;-75
2023/02/23 00:52:14;;;;;;;5.57;5.07;;;10.60;99.90;;;;;;5061571;28;20519;-74
2023/02/23 00:54:42;;;;;;;4.47;4.07;;;10.60;99.90;;;;;;5056627;28;20955;-74
2023/02/23 00:57:11;;;;;;;4.63;4.23;;;10.60;99.90;;;;;;5029211;28;20595;-74
2023/02/23 00:59:40;;;;;;;4.90;4.50;;;10.60;99.90;;;;;;5046042;28;20479;-74
2023/02/23 01:02:09;;;;;;;5.17;4.30;;;10.60;99.90;;;;;;5049159;28;20965;-74
2023/02/23 01:04:37;;;;;;;5.30;4.80;;;10.60;99.90;;;;;;5040212;28;20504;-75
2023/02/23 01:07:06;;;;;;;7.70;7.00;;;10.60;99.90;;;;;;5040233;28;20468;-74
2023/02/23 01:09:34;;;;;;;7.10;6.40;;;10.60;99.90;;;;;;5052478;28;20450;-74
2023/02/23 01:12:06;;;;;;;5.43;4.90;;;10.60;99.90;;;;;;5038162;28;20443;-74
2023/02/23 01:14:36;;;;;;;4.40;4.00;;;10.60;99.90;;;;;;5038251;28;20449;-74
2023/02/23 01:17:06;;;;;;;6.40;5.80;;;10.60;99.90;;;;;;5044157;28;20463;-75
2023/02/23 01:19:36;;;;;;;6.30;5.50;;;10.60;99.90;;;;;;5039573;28;20428;-77
2023/02/23 01:22:05;;;;;;;4.50;4.10;;;10.60;99.90;;;;;;5038318;28;20449;-74
2023/02/23 01:24:33;;;;;;;4.40;4.00;;;10.60;99.90;;;;;;5045032;28;20458;-75
2023/02/23 01:27:05;;;;;;;7.70;6.87;;;10.60;99.90;;;;;;5046749;28;20983;-74
2023/02/23 01:29:34;;;;;;;4.63;4.00;;;10.60;99.90;;;;;;5033472;28;20543;-74
2023/02/23 01:32:02;;;;;;;4.10;3.53;;;10.60;99.90;;;;;;5044558;28;20443;-75
2023/02/23 01:34:33;;;;;;;6.03;5.53;;;10.60;99.90;;;;;;5040646;28;20477;-74
2023/02/23 01:37:03;;;;;;;4.50;4.10;;;10.60;99.90;;;;;;5040599;28;20473;-74
2023/02/23 01:39:33;;;;;;;4.20;3.80;;;10.60;99.90;;;;;;5067565;28;20440;-74
2023/02/23 01:42:04;;;;;;;3.97;3.53;;;10.60;99.90;;;;;;5050681;28;20497;-75
2023/02/23 01:45:09;;;;;;;6.93;6.33;;;10.60;99.90;;;;;;5047784;28;20452;-75
2023/02/23 01:47:37;;;;;;;4.23;3.83;;;10.60;99.90;;;;;;5048836;28;20464;-74
2023/02/23 01:50:10;;;;;;;3.40;3.00;;;10.60;99.90;;;;;;5067149;28;20451;-74
2023/02/23 01:52:39;;;;;;;4.40;3.57;;;10.60;99.90;;;;;;5050255;28;21035;-75
2023/02/23 01:55:11;;;;;;;4.47;4.07;;;10.60;99.90;;;;;;5059592;28;21563;-73
2023/02/23 01:57:41;;;;;;;3.30;3.00;;;10.60;99.90;;;;;;5053216;28;20472;-76
2023/02/23 02:00:13;;;;;;;4.37;3.97;;;10.60;99.90;;;;;;5045665;28;20448;-75
2023/02/23 02:02:41;;;;;;;4.50;3.37;;;10.50;99.90;;;;;;5064902;28;20842;-74
2023/02/23 02:05:13;;;;;;;3.93;3.63;;;10.60;99.90;;;;;;5042126;28;21025;-75
2023/02/23 02:07:47;;;;;;;4.40;4.10;;;10.50;99.90;;;;;;5042686;28;20463;-74
2023/02/23 02:13:06;;;;;;;4.80;4.10;;;10.60;99.90;;;;;;5066433;28;20475;-75
2023/02/23 02:15:41;;;;;;;4.10;3.80;;;10.60;99.90;;;;;;5040685;28;20548;-75
2023/02/23 02:18:18;;;;;;;4.20;3.80;;;10.60;99.90;;;;;;5062709;28;20467;-75
2023/02/23 02:21:22;;;;;;;4.60;4.20;;;10.60;99.90;;;;;;5045823;28;21016;-76
2023/02/23 02:24:38;;;;;;;4.00;3.60;;;10.60;99.90;;;;;;5021736;28;20475;-75
2023/02/23 02:27:32;;;;;;;4.20;3.80;;;10.60;99.90;;;;;;5004371;28;20470;-75
2023/02/23 02:30:27;;;;;;;4.10;3.80;;;10.50;99.90;;;;;;5042086;28;20554;-75
2023/02/23 02:33:36;;;;;;;3.33;3.03;;;10.60;99.90;;;;;;5045750;28;20835;-74
2023/02/23 02:36:59;;;;;;;4.27;3.87;;;10.60;99.90;;;;;;5043261;28;20469;-74
2023/02/23 02:39:43;;;;;;;3.93;3.63;;;10.50;99.90;;;;;;4982951;28;20463;-75
2023/02/23 02:42:21;;;;;;;4.90;4.40;;;10.50;99.90;;;;;;5061409;28;20495;-75
2023/02/23 02:44:57;;;;;;;4.13;3.67;;;10.60;99.90;;;;;;5043865;28;20480;-75
2023/02/23 02:47:28;;;;;;;4.47;4.07;;;10.60;99.90;;;;;;5046678;28;20831;-75
2023/02/23 02:50:07;;;;;;;4.90;4.40;;;10.60;99.90;;;;;;5037969;28;20573;-75
2023/02/23 02:52:40;;;;;;;4.77;4.20;;;10.50;99.90;;;;;;5054508;28;21290;-75
2023/02/23 02:55:16;;;;;;;4.67;4.27;;;10.50;99.90;;;;;;5044382;28;20448;-74
2023/02/23 02:57:46;;;;;;;5.00;4.50;;;10.60;99.90;;;;;;5045825;28;20521;-75
2023/02/23 04:19:26;;;;;;;7.30;6.53;;;10.50;99.90;;;;;;5059178;28;21069;-76
2023/02/23 04:21:55;;;;;;;7.23;6.17;;;10.50;99.90;;;;;;5041189;28;20452;-75
2023/02/23 04:24:23;;;;;;;8.40;6.40;;;10.50;99.90;;;;;;5035432;28;20561;-75
2023/02/23 04:26:51;;;;;;;8.10;6.63;;;10.50;99.90;;;;;;5041282;28;20541;-75
2023/02/23 04:29:20;;;;;;;6.53;5.17;;;10.50;99.90;;;;;;5037088;28;20450;-74
2023/02/23 04:31:48;;;;;;;6.97;6.27;;;10.50;99.90;;;;;;5046241;28;20811;-75
2023/02/23 04:34:17;;;;;;;8.33;7.00;;;10.50;99.90;;;;;;5036215;28;21017;-74
2023/02/23 04:36:46;;;;;;;6.93;6.23;;;10.50;99.90;;;;;;5034568;28;21023;-75
2023/02/23 04:39:15;;;;;;;8.07;6.17;;;10.50;99.90;;;;;;5048164;28;20530;-75
2023/02/23 04:41:43;;;;;;;6.40;5.67;;;10.50;99.90;;;;;;5042874;28;20538;-75
2023/02/23 04:44:12;;;;;;;8.33;5.83;;;10.50;99.90;;;;;;5037774;28;20458;-75
2023/02/23 04:46:40;;;;;;;8.77;6.90;;;10.50;99.90;;;;;;5051371;28;20492;-74
2023/02/23 04:49:08;;;;;;;8.00;7.23;;;10.50;99.90;;;;;;5034755;28;20592;-74
2023/02/23 04:51:37;;;;;;;9.67;6.90;;;10.50;99.90;;;;;;5037928;28;20527;-74
2023/02/23 04:54:07;;;;;;;7.17;6.47;;;10.50;99.90;;;;;;5045186;28;20496;-74
2023/02/23 04:56:35;;;;;;;7.50;6.40;;;10.50;99.90;;;;;;5038279;28;20497;-74
2023/02/23 04:59:03;;;;;;;6.23;5.63;;;10.50;99.90;;;;;;5035236;28;20521;-76
2023/02/23 05:01:32;;;;;;;8.27;6.50;;;10.50;99.90;;;;;;5036982;28;20528;-75
2023/02/23 05:04:00;;;;;;;6.47;5.87;;;10.50;99.90;;;;;;5048160;28;20884;-74
2023/02/23 05:06:30;;;;;;;7.93;6.53;;;10.50;99.90;;;;;;5050762;28;20466;-74
2023/02/23 05:08:58;;;;;;;8.30;7.50;;;10.50;99.90;;;;;;5040955;28;21004;-74
2023/02/23 05:11:28;;;;;;;7.90;7.03;;;10.50;99.90;;;;;;5043433;28;20449;-76
2023/02/23 05:13:56;;;;;;;7.87;7.07;;;10.50;99.90;;;;;;5056228;28;20492;-74
2023/02/23 05:16:25;;;;;;;8.43;7.00;;;10.50;99.90;;;;;;5040906;28;20482;-74
2023/02/23 05:18:53;;;;;;;8.53;6.40;;;10.50;99.90;;;;;;5034081;28;21012;-74
2023/02/23 05:21:22;;;;;;;6.30;5.70;;;10.50;99.90;;;;;;5043528;28;20456;-75
2023/02/23 05:23:50;;;;;;;8.80;7.20;;;10.50;99.90;;;;;;5037301;28;20480;-75
2023/02/23 05:26:19;;;;;;;8.00;6.53;;;10.50;99.90;;;;;;5059006;28;20466;-74
2023/02/23 05:28:49;;;;;;;7.17;6.03;;;10.50;99.90;;;;;;5031697;28;20515;-75
2023/02/23 05:31:17;;;;;;;6.90;6.30;;;10.50;99.90;;;;;;5043659;28;20473;-75
2023/02/23 05:33:46;;;;;;;7.20;5.60;;;10.50;99.90;;;;;;5037256;28;20479;-75
2023/02/23 05:36:18;;;;;;;6.43;5.83;;;10.50;99.90;;;;;;5046739;28;20486;-75
2023/02/23 05:38:47;;;;;;;6.90;5.90;;;10.50;99.90;;;;;;5043508;28;20473;-73
2023/02/23 05:41:18;;;;;;;7.63;5.93;;;10.50;99.90;;;;;;5057102;28;20942;-75
2023/02/23 05:43:49;;;;;;;5.10;4.60;;;10.40;99.90;;;;;;5039929;28;20912;-75
2023/02/23 05:46:21;;;;;;;6.83;5.40;;;10.40;99.90;;;;;;5062919;28;20882;-74
2023/02/23 05:48:49;;;;;;;7.27;5.70;;;10.50;99.90;;;;;;5045440;28;20464;-74
2023/02/23 05:51:18;;;;;;;7.73;5.53;;;10.50;99.90;;;;;;5031226;28;20529;-74
2023/02/23 05:53:47;;;;;;;7.50;6.80;;;10.50;99.90;;;;;;5041051;28;20474;-75
2023/02/23 05:56:19;;;;;;;8.17;6.33;;;10.50;99.90;;;;;;5047804;28;20519;-74
2023/02/23 05:58:51;;;;;;;7.20;6.10;;;10.50;99.90;;;;;;5061533;28;20476;-75
2023/02/23 06:01:21;;;;;;;7.17;6.47;;;10.50;99.90;;;;;;5051839;28;20924;-74
2023/02/23 06:03:50;;;;;;;6.50;5.90;;;10.40;99.90;;;;;;5050370;28;20479;-75
2023/02/23 06:06:19;;;;;;;5.40;4.90;;;10.50;99.90;;;;;;5065578;28;20468;-75
2023/02/23 06:08:48;;;;;;;8.83;6.23;;;10.50;99.90;;;;;;5047181;28;20844;-75
2023/02/23 06:11:16;;;;;;;6.00;5.50;;;10.40;99.90;;;;;;5042800;28;20536;-74
2023/02/23 06:13:45;;;;;;;6.13;5.53;;;10.40;99.90;;;;;;5044663;28;20555;-75
2023/02/23 06:16:15;;;;;;;7.03;5.60;;;10.50;99.90;;;;;;5043291;28;20507;-74
2023/02/23 06:18:43;;;;;;;6.90;6.13;;;10.40;99.90;;;;;;5046410;28;20488;-75
2023/02/23 06:21:12;;;;;;;6.83;5.90;;;10.40;99.90;;;;;;5049057;28;20500;-74
2023/02/23 06:23:40;;;;;;;6.93;5.30;;;10.50;99.90;;;;;;5049481;28;20514;-74
2023/02/23 06:26:09;;;;;;;6.00;5.47;;;10.50;99.90;;;;;;5055349;28;20919;-75
2023/02/23 06:28:37;;;;;;;6.27;5.40;;;10.40;99.90;;;;;;5045115;28;20508;-74
2023/02/23 06:31:06;;;;;;;6.70;5.90;;;10.40;99.90;;;;;;5066123;28;20852;-74
2023/02/23 06:33:36;;;;;;;6.47;5.33;;;10.40;99.90;;;;;;5044297;28;20466;-75
2023/02/23 06:36:05;;;;;;;8.63;5.30;;;10.50;99.90;;;;;;5036371;28;20584;-74
2023/02/23 06:38:33;;;;;;;5.53;5.03;;;10.40;99.90;;;;;;5041206;28;20599;-74
2023/02/23 06:41:07;;;;;;;7.10;6.40;;;10.40;99.90;;;;;;5028607;28;20771;-75
2023/02/23 06:43:36;;;;;;;7.13;6.00;;;10.40;99.90;;;;;;5043412;28;20580;-74
2023/02/23 06:46:05;;;;;;;5.53;4.77;;;10.40;99.90;;;;;;5037477;28;20455;-74
2023/02/23 06:48:34;;;;;;;7.50;5.23;;;10.40;99.90;;;;;;5048542;28;20453;-74
2023/02/23 06:51:04;;;;;;;10.50;6.93;;;10.40;99.90;;;;;;5046268;28;20487;-75
2023/02/23 06:53:32;;;;;;;6.37;5.77;;;10.40;99.90;;;;;;5032472;28;20555;-75
2023/02/23 06:56:02;;;;;;;5.90;5.33;;;10.40;99.90;;;;;;5049851;28;20455;-75
2023/02/23 06:58:30;;;;;;;5.77;5.27;;;10.40;99.90;;;;;;5039777;28;20492;-75
2023/02/23 07:00:59;;;;;;;6.00;4.57;;;10.40;99.90;;;;;;5039888;28;20648;-75
2023/02/23 07:03:27;;;;;;;6.30;5.40;;;10.40;99.90;;;;;;5056667;28;20464;-75
2023/02/23 07:05:56;;;;;;;5.40;4.40;;;10.40;99.90;;;;;;5042424;28;20861;-75
2023/02/23 07:08:26;;;;;;;5.67;4.53;;;10.40;99.90;;;;;;5059400;28;20541;-74
2023/02/23 07:10:56;;;;;;;5.73;4.80;;;10.40;99.90;;;;;;5048255;28;20899;-75
2023/02/23 07:13:24;;;;;;;8.60;4.90;;;10.40;99.90;;;;;;5062369;28;20476;-74
2023/02/23 07:15:57;;;;;;;5.30;4.80;;;10.40;99.90;;;;;;5047364;28;20998;-74
2023/02/23 07:18:25;;;;;;;5.73;5.13;;;10.40;99.90;;;;;;5044628;28;20509;-73
2023/02/23 07:20:54;;;;;;;7.30;6.17;;;10.40;99.90;;;;;;5059426;28;20577;-74
2023/02/23 07:23:22;;;;;;;6.13;5.10;;;10.40;99.90;;;;;;5046370;28;20503;-73
2023/02/23 07:25:52;;;;;;;5.43;4.67;;;10.40;99.90;;;;;;5039754;28;20468;-75
2023/02/23 07:28:21;;;;;;;5.60;4.77;;;10.40;99.90;;;;;;5046557;28;21054;-69
2023/02/23 07:30:49;;;;;;;5.57;5.03;;;10.40;99.90;;;;;;5044615;28;20440;-69
2023/02/23 07:33:18;;;;;;;6.80;5.37;;;10.40;99.90;;;;;;5047038;28;20479;-69
2023/02/23 07:35:46;;;;;;;5.57;4.50;;;10.40;99.90;;;;;;5032353;28;20473;-70
2023/02/23 07:38:15;;;;;;;5.67;5.00;;;10.40;99.90;;;;;;5045227;28;20480;-70
2023/02/23 07:40:43;;;;;;;4.70;4.30;;;10.40;99.90;;;;;;5051731;28;20564;-70
2023/02/23 07:43:13;;;;;;;5.07;4.50;;;10.40;99.90;;;;;;5040210;28;21543;-70
2023/02/23 07:45:42;;;;;;;6.00;4.90;;;10.40;99.90;;;;;;5037856;28;20768;-68
2023/02/23 07:48:13;;;;;;;5.57;4.33;;;10.40;99.90;;;;;;5065479;28;20486;-70
2023/02/23 07:50:42;;;;;;;4.70;4.30;;;10.40;99.90;;;;;;5061165;28;20938;-70
2023/02/23 07:53:12;;;;;;;4.10;3.77;;;10.40;99.90;;;;;;5056836;28;20563;-69
2023/02/23 07:55:41;;;;;;;6.70;5.50;;;10.40;99.90;;;;;;5065739;28;21056;-67
2023/02/23 07:58:11;;;;;;;6.10;5.50;;;10.40;99.90;;;;;;5058130;28;20470;-69
2023/02/23 08:00:41;;;;;;;7.23;5.10;;;10.40;99.90;;;;;;5037241;28;20463;-69
2023/02/23 08:03:10;;;;;;;5.10;4.60;;;10.40;99.90;;;;;;5035955;28;20983;-68
2023/02/23 08:05:39;;;;;;;5.80;5.20;;;10.40;99.90;;;;;;5044934;28;20477;-69
2023/02/23 08:08:07;;;;;;;6.43;5.50;;;10.40;99.90;;;;;;5039332;28;21007;-69
2023/02/23 08:10:36;;;;;;;5.57;5.07;;;10.40;99.90;;;;;;5043268;28;20481;-69
2023/02/23 08:13:05;;;;;;;6.73;5.10;;;10.40;99.90;;;;;;5043427;28;20478;-69
2023/02/23 08:15:33;;;;;;;6.33;5.67;;;10.40;99.90;;;;;;5040265;28;20460;-69
2023/02/23 08:18:04;;;;;;;6.80;5.13;;;10.40;99.90;;;;;;5038660;28;20495;-68
2023/02/23 08:20:32;;;;;;;6.23;5.17;;;10.40;99.90;;;;;;5041042;28;20461;-69
2023/02/23 08:23:01;;;;;;;5.63;5.10;;;10.40;99.90;;;;;;5040842;28;20481;-68
2023/02/23 08:25:29;;;;;;;5.87;4.93;;;10.40;99.90;;;;;;5042063;28;20471;-70
2023/02/23 08:28:03;;;;;;;6.17;5.37;;;10.40;99.90;;;;;;5040197;28;20507;-69
2023/02/23 08:30:32;;;;;;;5.87;5.00;;;10.40;99.90;;;;;;5051533;28;20929;-69
2023/02/23 08:33:01;;;;;;;5.27;4.53;;;10.40;99.90;;;;;;5037176;28;20472;-69
2023/02/23 08:35:30;;;;;;;5.07;4.57;;;10.40;99.90;;;;;;5045344;28;20478;-68
2023/02/23 08:37:59;;;;;;;6.43;5.40;;;10.40;99.90;;;;;;5040970;28;20472;-70
2023/02/23 08:40:27;;;;;;;4.80;4.30;;;10.40;99.90;;;;;;5042870;28;20479;-67
2023/02/23 08:42:56;;;;;;;5.50;4.50;;;10.40;99.90;;;;;;5043182;28;21032;-69
2023/02/23 08:45:24;;;;;;;5.33;4.70;;;10.40;99.90;;;;;;5060859;28;20476;-68
2023/02/23 08:47:54;;;;;;;5.47;4.60;;;10.30;99.90;;;;;;5040161;28;20982;-69
2023/02/23 08:50:23;;;;;;;5.20;4.70;;;10.30;99.90;;;;;;5033290;28;20435;-69
2023/02/23 08:52:55;;;;;;;4.83;4.40;;;10.40;99.90;;;;;;5042876;28;20574;-70
2023/02/23 08:55:24;;;;;;;4.83;4.17;;;10.40;99.90;;;;;;5043585;28;20958;-69
2023/02/23 08:57:53;;;;;;;4.80;3.80;;;10.30;99.90;;;;;;5043269;28;20514;-70
2023/02/23 09:00:22;;;;;;;5.60;4.63;;;10.40;99.90;;;;;;5042973;28;20524;-68
2023/02/23 09:02:51;;;;;;;7.07;5.43;;;10.40;99.90;;;;;;5050651;28;20469;-68
2023/02/23 09:05:19;;;;;;;5.80;5.30;;;10.30;99.90;;;;;;5031794;28;20453;-68
2023/02/23 09:07:48;;;;;;;6.43;5.83;;;10.40;99.90;;;;;;5046482;28;20474;-69
2023/02/23 09:10:22;;;;;;;5.47;4.90;;;10.40;99.90;;;;;;5051751;28;20451;-69
2023/02/23 09:12:51;;;;;;;4.63;4.17;;;10.30;99.90;;;;;;5040021;28;20513;-69
2023/02/23 09:15:20;;;;;;;5.17;4.67;;;10.30;99.90;;;;;;5060745;28;20452;-70
2023/02/23 09:17:49;;;;;;;5.37;4.87;;;10.40;99.90;;;;;;5026926;28;21008;-68
2023/02/23 09:20:18;;;;;;;6.30;5.07;;;10.30;99.90;;;;;;5039892;28;20859;-69
2023/02/23 09:22:48;;;;;;;6.33;5.70;;;10.40;99.90;;;;;;5039844;28;20985;-70
2023/02/23 09:25:21;;;;;;;7.00;5.77;;;10.40;99.90;;;;;;5045067;28;20895;-70
2023/02/23 09:27:50;;;;;;;5.97;5.20;;;10.30;99.90;;;;;;5030803;28;20481;-69
2023/02/23 09:30:21;;;;;;;6.27;5.30;;;10.40;99.90;;;;;;5042967;28;20994;-74
2023/02/23 09:32:50;;;;;;;5.87;5.37;;;10.40;99.90;;;;;;5033504;28;20484;-74
2023/02/23 09:35:21;;;;;;;5.30;4.57;;;10.40;99.90;;;;;;5066181;28;20523;-74
2023/02/23 09:37:51;;;;;;;4.60;4.20;;;10.40;99.90;;;;;;5040321;28;20475;-75
2023/02/23 09:40:24;;;;;;;8.30;6.03;;;10.40;99.90;;;;;;5043090;28;20432;-73
2023/02/23 09:43:02;;;;;;;6.30;4.87;;;10.30;99.90;;;;;;5038428;28;20865;-75
2023/02/23 09:45:38;;;;;;;5.77;4.70;;;10.30;99.90;;;;;;5064753;28;20559;-74
2023/02/23 09:48:15;;;;;;;6.50;5.27;;;10.30;99.90;;;;;;5025090;28;20474;-74
2023/02/23 09:50:48;;;;;;;5.23;4.40;;;10.40;99.90;;;;;;5045198;28;20449;-73
2023/02/23 09:53:30;;;;;;;4.97;4.50;;;10.30;99.90;;;;;;5059623;28;20474;-73
2023/02/23 09:56:09;;;;;;;5.00;4.20;;;10.40;99.90;;;;;;5066164;28;20843;-74
2023/02/23 09:58:38;;;;;;;6.00;5.40;;;10.30;99.90;;;;;;5044271;28;20478;-74
2023/02/23 10:01:38;;;;;;;6.27;5.67;;;10.30;99.90;;;;;;5061819;28;20926;-74
2023/02/23 10:04:12;;;;;;;4.60;4.20;;;10.30;99.90;;;;;;5066669;28;20476;-74
2023/02/23 10:06:45;;;;;;;6.27;5.33;;;10.30;99.90;;;;;;5038100;28;20468;-74
2023/02/23 10:09:21;;;;;;;5.17;4.67;;;10.30;99.90;;;;;;5039181;28;20491;-73
2023/02/23 10:11:59;;;;;;;6.57;5.37;;;10.30;99.90;;;;;;5064002;28;20441;-74
2023/02/23 10:14:52;;;;;;;5.40;4.90;;;10.30;99.90;;;;;;5037521;28;20512;-74
2023/02/23 10:17:29;;;;;;;6.90;6.03;;;10.30;99.90;;;;;;5061691;28;20576;-74
2023/02/23 10:20:04;;;;;;;6.53;5.37;;;10.30;99.90;;;;;;5043400;28;21217;-74
2023/02/23 10:22:35;;;;;;;7.57;5.60;;;10.30;99.90;;;;;;5046941;28;20468;-74
2023/02/23 10:25:07;;;;;;;7.03;5.33;;;10.30;99.90;;;;;;5045385;28;20475;-74
2023/02/23 10:27:41;;;;;;;5.80;5.20;;;10.30;99.90;;;;;;5044776;28;20597;-74
2023/02/23 10:30:19;;;;;;;5.40;4.90;;;10.30;99.90;;;;;;5063523;28;20908;-74
2023/02/23 10:32:54;;;;;;;5.83;4.70;;;10.30;99.90;;;;;;5054106;28;20464;-74
2023/02/23 10:35:24;;;;;;;5.33;4.80;;;10.30;99.90;;;;;;5058023;28;20444;-75
2023/02/23 10:37:54;;;;;;;5.83;5.00;;;10.30;99.90;;;;;;5044724;28;20500;-75
2023/02/23 10:40:24;;;;;;;5.77;5.17;;;10.30;99.90;;;;;;5049867;28;20444;-74
2023/02/23 10:42:55;;;;;;;5.63;5.00;;;10.30;99.90;;;;;;5063563;28;20471;-75
2023/02/23 10:45:26;;;;;;;9.67;7.57;;;10.30;99.90;;;;;;5044095;28;20447;-74
2023/02/23 10:47:58;;;;;;;6.77;6.07;;;10.30;99.90;;;;;;5048955;28;20559;-74
2023/02/23 10:50:29;;;;;;;6.60;5.47;;;10.30;99.90;;;;;;5048743;28;20495;-75
2023/02/23 10:53:00;;;;;;;8.77;6.63;;;10.30;99.90;;;;;;5044541;28;20445;-74
2023/02/23 10:55:30;;;;;;;6.50;5.20;;;10.30;99.90;;;;;;5021923;28;20482;-75
2023/02/23 10:58:09;;;;;;;7.43;6.13;;;10.30;99.90;;;;;;5040341;28;20473;-74
2023/02/23 11:00:40;;;;;;;6.27;5.43;;;10.30;99.90;;;;;;5018495;28;20835;-75
2023/02/23 11:03:21;;;;;;;6.90;5.00;;;10.30;99.90;;;;;;5043038;28;21121;-73
2023/02/23 11:05:51;;;;;;;7.20;6.33;;;10.30;99.90;;;;;;5061578;28;21050;-75
2023/02/23 11:08:30;;;;;;;7.47;5.33;;;10.30;99.90;;;;;;5032735;28;21016;-74
2023/02/23 11:11:06;;;;;;;6.80;5.70;;;10.30;99.90;;;;;;5035458;28;20443;-74
2023/02/23 11:13:39;;;;;;;6.50;5.90;;;10.30;99.90;;;;;;5048825;28;21117;-73
2023/02/23 11:16:12;;;;;;;7.17;5.33;;;10.30;99.90;;;;;;5066264;28;20468;-74
2023/02/23 11:18:43;;;;;;;7.23;5.43;;;10.30;99.90;;;;;;5044571;28;20539;-75
2023/02/23 11:21:22;;;;;;;4.60;3.83;;;10.30;99.90;;;;;;5061356;28;20863;-74
2023/02/23 11:23:53;;;;;;;7.33;5.07;;;10.30;99.90;;;;;;5029792;28;20469;-74
2023/02/23 11:26:37;;;;;;;5.73;4.90;;;10.30;99.90;;;;;;5045607;28;20841;-73
2023/02/23 11:29:16;;;;;;;5.90;5.27;;;10.30;99.90;;;;;;5036103;28;20542;-73
2023/02/23 11:31:50;;;;;;;6.90;5.43;;;10.30;99.90;;;;;;5049838;28;20433;-74
2023/02/23 11:34:28;;;;;;;7.00;5.60;;;10.30;99.90;;;;;;5046800;28;20444;-74
2023/02/23 11:37:03;;;;;;;6.93;6.17;;;10.30;99.90;;;;;;5054989;28;20460;-74
2023/02/23 11:39:32;;;;;;;6.13;5.33;;;10.30;99.90;;;;;;5018179;28;20452;-74
2023/02/23 11:42:18;;;;;;;8.07;5.37;;;10.30;99.90;;;;;;5042585;28;20615;-74
2023/02/23 11:44:52;;;;;;;6.67;5.63;;;10.30;99.90;;;;;;5060468;28;20447;-73
2023/02/23 11:47:24;;;;;;;5.47;4.97;;;10.30;99.90;;;;;;5020003;28;21021;-74
2023/02/23 11:49:55;;;;;;;6.90;5.73;;;10.30;99.90;;;;;;5037244;28;20438;-74
2023/02/23 11:52:26;;;;;;;6.90;5.80;;;10.30;99.90;;;;;;5060277;28;20503;-74
2023/02/23 11:54:59;;;;;;;7.00;5.57;;;10.20;99.90;;;;;;5060962;28;20941;-75
2023/02/23 11:57:30;;;;;;;7.07;5.97;;;10.20;99.90;;;;;;5048418;28;20483;-75
2023/02/23 12:00:08;;;;;;;8.67;6.63;;;10.30;99.90;;;;;;5037653;28;20455;-75
2023/02/23 12:02:49;;;;;;;6.67;5.83;;;10.30;99.90;;;;;;5040966;28;20499;-74
2023/02/23 12:05:21;;;;;;;7.13;5.23;;;10.20;99.90;;;;;;5048679;28;20456;-74
2023/02/23 12:07:56;;;;;;;6.80;5.10;;;10.20;99.90;;;;;;5044891;28;20469;-75
2023/02/23 12:10:30;;;;;;;8.20;5.80;;;10.20;99.90;;;;;;5063502;28;20777;-74
2023/02/23 12:13:25;;;;;;;6.83;5.73;;;10.30;99.90;;;;;;5044552;28;20567;-74
2023/02/23 12:15:59;;;;;;;6.47;5.80;;;10.20;99.90;;;;;;5058578;28;20463;-74
2023/02/23 12:18:44;;;;;;;6.67;5.97;;;10.20;99.90;;;;;;5043296;28;20552;-75
2023/02/23 12:21:28;;;;;;;5.63;4.97;;;10.20;99.90;;;;;;5043404;28;20440;-73
2023/02/23 12:24:13;;;;;;;6.80;5.83;;;10.20;99.90;;;;;;5037784;28;20974;-74
2023/02/23 12:26:49;;;;;;;7.77;5.73;;;10.20;99.90;;;;;;5062854;28;21053;-74
2023/02/23 12:29:23;;;;;;;6.43;5.43;;;10.20;99.90;;;;;;5043736;28;20472;-74
2023/02/23 12:31:57;;;;;;;7.07;5.13;;;10.20;99.90;;;;;;5048005;28;20452;-74
2023/02/23 12:34:30;;;;;;;6.40;5.03;;;10.20;99.90;;;;;;5042251;28;20491;-74
2023/02/23 12:37:06;;;;;;;7.33;5.87;;;10.20;99.90;;;;;;5045794;28;20483;-74
2023/02/23 12:39:39;;;;;;;8.30;5.97;;;10.20;99.90;;;;;;5050939;28;20443;-74
2023/02/23 12:42:19;;;;;;;6.80;5.53;;;10.20;99.90;;;;;;5062167;28;20541;-74
2023/02/23 12:44:52;;;;;;;10.23;7.33;;;10.20;99.90;;;;;;5045168;28;20445;-75
2023/02/23 12:47:32;;;;;;;9.43;6.20;;;10.20;99.90;;;;;;5046878;28;20481;-74
2023/02/23 12:50:11;;;;;;;8.77;6.33;;;10.20;99.90;;;;;;5044465;28;20477;-74
2023/02/23 12:52:45;;;;;;;7.23;5.03;;;10.20;99.90;;;;;;5033566;28;20899;-73
2023/02/23 12:55:14;;;;;;;8.10;6.67;;;10.20;99.90;;;;;;5040445;28;20448;-74
2023/02/23 12:57:53;;;;;;;9.23;6.40;;;10.20;99.90;;;;;;5042299;28;20469;-74
2023/02/23 13:00:50;;;;;;;9.17;7.83;;;10.20;99.90;;;;;;5063093;28;20513;-74
2023/02/23 13:03:39;;;;;;;9.93;7.43;;;10.20;99.90;;;;;;5025732;28;20522;-74
2023/02/23 13:06:15;;;;;;;9.13;6.30;;;10.20;99.90;;;;;;5060080;28;20567;-74
2023/02/23 13:08:58;;;;;;;8.73;6.80;;;10.20;99.90;;;;;;5042677;28;20491;-74
2023/02/23 13:11:46;;;;;;;9.20;7.00;;;10.20;99.90;;;;;;5062964;28;20455;-73
2023/02/23 13:14:22;;;;;;;8.23;6.50;;;10.20;99.90;;;;;;5055300;28;20460;-74
2023/02/23 13:16:54;;;;;;;10.23;6.97;;;10.20;99.90;;;;;;5055978;28;20468;-74
2023/02/23 13:19:31;;;;;;;10.30;6.97;;;10.20;99.90;;;;;;5060897;28;20543;-74
2023/02/23 13:22:09;;;;;;;9.40;6.53;;;10.20;99.90;;;;;;5047243;28;20546;-73
2023/02/23 13:24:43;;;;;;;10.80;7.60;;;10.20;99.90;;;;;;5039361;28;20428;-74
2023/02/23 13:27:18;;;;;;;8.73;6.63;;;10.20;99.90;;;;;;5043231;28;20884;-74
2023/02/23 13:29:48;;;;;;;8.30;6.13;;;10.20;99.90;;;;;;5043519;28;20461;-74
2023/02/23 13:32:20;;;;;;;8.67;6.83;;;10.20;99.90;;;;;;5045157;28;20483;-74
2023/02/23 13:34:54;;;;;;;8.03;6.27;;;10.20;99.90;;;;;;5046223;28;20481;-74
2023/02/23 13:37:27;;;;;;;10.13;7.47;;;10.20;99.90;;;;;;5064362;28;20512;-74
2023/02/23 13:40:04;;;;;;;8.53;6.97;;;10.20;99.90;;;;;;5044642;28;20445;-73
2023/02/23 13:42:44;;;;;;;7.57;6.03;;;10.20;99.90;;;;;;5064474;28;20477;-74
2023/02/23 13:45:34;;;;;;;9.03;6.80;;;10.20;99.90;;;;;;5067035;28;20463;-74
2023/02/23 13:48:19;;;;;;;11.33;7.70;;;10.20;99.90;;;;;;5046449;28;20733;-73
2023/02/23 13:50:57;;;;;;;9.27;7.33;;;10.20;99.90;;;;;;5040238;28;20804;-74
2023/02/23 13:53:37;;;;;;;7.33;6.43;;;10.20;99.90;;;;;;5042345;28;20542;-73
2023/02/23 13:56:08;;;;;;;11.23;7.50;;;10.20;99.90;;;;;;5045678;28;20473;-69
2023/02/23 13:58:37;;;;;;;9.37;6.70;;;10.20;99.90;;;;;;5041819;28;20483;-68
2023/02/23 14:01:14;;;;;;;9.00;7.83;;;10.20;99.90;;;;;;5045229;28;20530;-67
2023/02/23 14:03:47;;;;;;;10.60;7.87;;;10.20;99.90;;;;;;5045176;28;20467;-69
2023/02/23 14:06:20;;;;;;;10.40;7.07;;;10.20;99.90;;;;;;5056042;28;20561;-68
2023/02/23 14:08:55;;;;;;;10.50;7.37;;;10.20;99.90;;;;;;5056393;28;20919;-69
2023/02/23 14:11:45;;;;;;;9.33;6.87;;;10.20;99.90;;;;;;5051890;28;20502;-68
2023/02/23 14:14:40;;;;;;;8.37;6.73;;;10.20;99.90;;;;;;5035692;28;20475;-67
2023/02/23 14:17:41;;;;;;;12.53;8.40;;;10.20;99.90;;;;;;5062359;28;20491;-68
2023/02/23 14:20:21;;;;;;;10.17;6.83;;;10.20;99.90;;;;;;4964294;28;20502;-69
2023/02/23 14:23:36;;;;;;;11.13;6.60;;;10.20;99.90;;;;;;5047048;28;20547;-69
2023/02/23 14:26:16;;;;;;;8.10;6.50;;;10.20;99.90;;;;;;4966750;28;20886;-69
2023/02/23 14:28:49;;;;;;;9.73;6.60;;;10.20;99.90;;;;;;4965024;28;20474;-68
2023/02/23 14:31:21;;;;;;;9.67;7.07;;;10.20;99.90;;;;;;5025902;28;20464;-67
2023/02/23 14:33:57;;;;;;;8.73;6.60;;;10.20;99.90;;;;;;5046048;28;20456;-67
2023/02/23 14:36:38;;;;;;;9.90;7.70;;;10.20;99.90;;;;;;5056754;28;20478;-66
2023/02/23 14:39:19;;;;;;;9.13;7.10;;;10.20;99.90;;;;;;5065486;28;20481;-68